Flight Track Log - Related Links

Times and Time Zones

All times are in EDT time to prevent confusion due to time zone crossing. See the N143DE flight status page for this flight to view local times or setup timezone preferences in your user account.

Time Position Orientation Groundspeed Altitude Reporting Facility
EDT Latitude Longitude Course Direction KTS MPH feet Rate Location/Type
Thu 12:30:46 PM 26.2589 -81.7722 354° North 184 212 5,100  Level Miami Center
Thu 12:31:46 PM 26.3108 -81.7767 356° North 179 206 7,000 1,850 Climbing Miami Center
Thu 12:32:46 PM 26.3608 -81.7786 358° North 179 206 8,800 1,800 Climbing Miami Center
Thu 12:33:46 PM 26.4106 -81.7900 348° North 179 206 10,600 1,750 Climbing Miami Center
Thu 12:34:00 PM 26.4727 -81.8049 354° North  Level FlightAware Approximate
Thu 12:34:46 PM 26.4564 -81.7989 350° North 179 206 12,300  Level Miami Center
Thu 12:35:00 PM 26.5373 -81.8130 354° North  Level FlightAware Approximate
Thu 12:35:46 PM 26.5019 -81.8078 350° North 179 206 13,600  Level Miami Center
Thu 12:36:00 PM 26.6020 -81.8206 354° North  Level FlightAware Approximate
Thu 12:36:46 PM 26.5497 -81.8167 351° North 179 206 14,900  Level Miami Center
Thu 12:37:46 PM 26.6017 -81.8236 353° North 179 206 16,100 1,150 Climbing Miami Center
Thu 12:38:46 PM 26.6514 -81.8325 351° North 179 206 17,200 1,100 Climbing Miami Center
Thu 12:39:46 PM 26.7053 -81.8394 353° North 179 206 18,300 1,100 Climbing Miami Center
Thu 12:40:46 PM 26.7553 -81.8417 358° North 179 206 19,400 1,000 Climbing Miami Center
Thu 12:41:46 PM 26.8072 -81.8508 351° North 179 206 20,300 850 Climbing Miami Center
Thu 12:42:46 PM 26.8592 -81.8578 353° North 179 206 21,100 850 Climbing Miami Center
Thu 12:43:46 PM 26.9133 -81.8647 353° North 179 206 22,000 900 Climbing Miami Center
Thu 12:44:46 PM 26.9653 -81.8717 353° North 179 206 22,900 850 Climbing Miami Center
Thu 12:45:46 PM 27.0172 -81.8786 353° North 179 206 23,700 750 Climbing Miami Center
Thu 12:46:46 PM 27.0689 -81.8878 351° North 179 206 24,400 700 Climbing Miami Center
Thu 12:47:46 PM 27.1272 -81.8925 356° North 184 212 25,100 650 Climbing Miami Center
Thu 12:48:46 PM 27.1814 -81.8997 353° North 184 212 25,700 500 Climbing Miami Center
Thu 12:49:46 PM 27.2333 -81.9067 353° North 184 212 26,100 250 Climbing Miami Center
Thu 12:50:46 PM 27.2850 -81.9158 351° North 200 230 26,200 50 Climbing Miami Center
Thu 12:51:46 PM 27.3494 -81.9256 352° North 212 244 26,200 -50 Level Miami Center
Thu 12:52:46 PM 27.4203 -81.9311 356° North 230 265 26,100 -50 Descending Miami Center
Thu 12:53:46 PM 27.4844 -81.9408 352° North 235 270 26,100  Level Miami Center
Thu 12:54:46 PM 27.5428 -81.9483 353° North 235 270 26,100  Level Miami Center
Thu 12:55:46 PM 27.6092 -81.9606 351° North 235 270 26,100  Level Miami Center
Thu 12:56:46 PM 27.6819 -81.9683 355° North 235 270 26,100  Level Miami Center
Thu 12:57:46 PM 27.7483 -81.9761 354° North 235 270 26,100  Level Miami Center
Thu 12:58:46 PM 27.8147 -81.9886 351° North 235 270 26,100  Level Miami Center
Thu 12:59:46 PM 27.8833 -81.9964 354° North 235 270 26,100  Level Miami Center
Thu 01:00:27 PM 27.9214 -82.0047 349° North 235 270 26,100  Level Jacksonville Center
Thu 01:01:26 PM 27.9864 -82.0158 351° North 235 270 26,100 50 Level Jacksonville Center
Thu 01:02:26 PM 28.0408 -82.0600 324° Northwest 235 270 26,200 50 Climbing Jacksonville Center
Thu 01:03:26 PM 28.0933 -82.1067 322° Northwest 235 270 26,200  Level Jacksonville Center
Thu 01:04:26 PM 28.1458 -82.1533 322° Northwest 235 270 26,200  Level Jacksonville Center
Thu 01:05:26 PM 28.1961 -82.2003 321° Northwest 235 270 26,200  Level Jacksonville Center
Thu 01:06:26 PM 28.2483 -82.2447 323° Northwest 235 270 26,200  Level Jacksonville Center
Thu 01:07:26 PM 28.2989 -82.2914 321° Northwest 235 270 26,200  Level Jacksonville Center
Thu 01:08:26 PM 28.3492 -82.3383 321° Northwest 235 270 26,200  Level Jacksonville Center
Thu 01:09:26 PM 28.4014 -82.3828 323° Northwest 235 270 26,200  Level Jacksonville Center
Thu 01:10:26 PM 28.4517 -82.4297 321° Northwest 235 270 26,200  Level Jacksonville Center
Thu 01:11:26 PM 28.5019 -82.4769 320° Northwest 235 270 26,200  Level Jacksonville Center
Thu 01:12:26 PM 28.5542 -82.5217 323° Northwest 235 270 26,200  Level Jacksonville Center
Thu 01:13:26 PM 28.6044 -82.5664 322° Northwest 235 270 26,200  Level Jacksonville Center
Thu 01:14:26 PM 28.6567 -82.6158 320° Northwest 235 270 26,200  Level Jacksonville Center
Thu 01:15:26 PM 28.7089 -82.6583 324° Northwest 235 270 26,200  Level Jacksonville Center
Thu 01:16:26 PM 28.7592 -82.7056 321° Northwest 235 270 26,200  Level Jacksonville Center
Thu 01:17:26 PM 28.8094 -82.7528 321° Northwest 235 270 26,200 -50 Level Jacksonville Center
Thu 01:18:26 PM 28.8636 -82.8000 323° Northwest 240 276 26,100 -50 Descending Jacksonville Center
Thu 01:19:26 PM 28.9136 -82.8475 320° Northwest 240 276 26,100  Level Jacksonville Center
Thu 01:20:26 PM 28.9658 -82.8925 323° Northwest 240 276 26,100  Level Jacksonville Center
Thu 01:21:26 PM 29.0222 -82.9447 321° Northwest 235 270 26,100 50 Level Jacksonville Center
Thu 01:22:26 PM 29.0722 -82.9925 320° Northwest 235 270 26,200  Climbing Jacksonville Center
Thu 01:23:26 PM 29.1244 -83.0375 323° Northwest 235 270 26,100  Descending Jacksonville Center
Thu 01:24:26 PM 29.1744 -83.0875 319° Northwest 235 270 26,200 50 Climbing Jacksonville Center
Thu 01:25:26 PM 29.2267 -83.1328 323° Northwest 235 270 26,200  Level Jacksonville Center
Thu 01:26:26 PM 29.2767 -83.1806 320° Northwest 235 270 26,200  Level Jacksonville Center
Thu 01:27:26 PM 29.3267 -83.2261 322° Northwest 235 270 26,200  Level Jacksonville Center
Thu 01:28:26 PM 29.3786 -83.2764 320° Northwest 235 270 26,200  Level Jacksonville Center
Thu 01:29:26 PM 29.4308 -83.3242 321° Northwest 235 270 26,200  Level Jacksonville Center
Thu 01:30:26 PM 29.4828 -83.3719 321° Northwest 235 270 26,200  Level Jacksonville Center
Thu 01:31:26 PM 29.5347 -83.4178 322° Northwest 235 270 26,200  Level Jacksonville Center
Thu 01:32:26 PM 29.5867 -83.4658 321° Northwest 235 270 26,200  Level Jacksonville Center
Thu 01:33:26 PM 29.6386 -83.5139 321° Northwest 235 270 26,200  Level Jacksonville Center
Thu 01:34:26 PM 29.6906 -83.5619 321° Northwest 235 270 26,200  Level Jacksonville Center
Thu 01:35:26 PM 29.7364 -83.6125 316° Northwest 235 270 26,200  Level Jacksonville Center
Thu 01:36:26 PM 29.7608 -83.6822 292° West 230 265 26,200 -50 Level Jacksonville Center
Thu 01:37:26 PM 29.7856 -83.7494 293° West 230 265 26,100  Descending Jacksonville Center
Thu 01:38:26 PM 29.8122 -83.8189 294° West 235 270 26,200 50 Climbing Jacksonville Center
Thu 01:39:26 PM 29.8367 -83.8864 293° West 235 270 26,200  Level Jacksonville Center
Thu 01:40:26 PM 29.8633 -83.9561 294° West 235 270 26,200 -50 Level Jacksonville Center
Thu 01:41:26 PM 29.8858 -84.0233 291° West 230 265 26,100  Descending Jacksonville Center
Thu 01:42:26 PM 29.9122 -84.0906 294° West 230 265 26,200 50 Climbing Jacksonville Center
Thu 01:43:26 PM 29.9367 -84.1606 292° West 230 265 26,200  Level Jacksonville Center
Thu 01:44:26 PM 29.9589 -84.2208 293° West 235 270 26,200  Level Jacksonville Center
Thu 01:45:26 PM 29.9833 -84.2906 292° West 235 270 26,200  Level Jacksonville Center
Thu 01:46:26 PM 30.0097 -84.3606 294° West 235 270 26,200  Level Jacksonville Center
Thu 01:47:26 PM 30.0317 -84.4281 291° West 230 265 26,200  Level Jacksonville Center
Thu 01:48:26 PM 30.0581 -84.4933 295° West 230 265 26,200  Level Jacksonville Center
Thu 01:49:26 PM 30.0822 -84.5608 292° West 230 265 26,200  Level Jacksonville Center
Thu 01:50:26 PM 30.1086 -84.6261 295° West 230 265 26,200  Level Jacksonville Center
Thu 01:51:26 PM 30.1286 -84.6914 290° West 230 265 26,200  Level Jacksonville Center
Thu 01:52:26 PM 30.1525 -84.7614 292° West 230 265 26,200  Level Jacksonville Center
Thu 01:53:26 PM 30.1789 -84.8269 295° West 230 265 26,200  Level Jacksonville Center
Thu 01:54:26 PM 30.2008 -84.8922 291° West 230 265 26,200  Level Jacksonville Center
Thu 01:55:26 PM 30.2269 -84.9575 295° West 230 265 26,200  Level Jacksonville Center
Thu 01:56:26 PM 30.2486 -85.0278 290° West 230 265 26,200  Level Jacksonville Center
Thu 01:57:26 PM 30.2767 -85.0933 296° West 230 265 26,200  Level Jacksonville Center
Thu 01:58:26 PM 30.2986 -85.1614 290° West 230 265 26,200  Level Jacksonville Center
Thu 01:59:26 PM 30.3222 -85.2292 292° West 230 265 26,200  Level Jacksonville Center
Thu 02:00:27 PM 30.3461 -85.2972 292° West 230 265 26,200  Level Jacksonville Center
Thu 02:01:26 PM 30.3719 -85.3653 294° West 230 265 26,200  Level Jacksonville Center
Thu 02:02:26 PM 30.3956 -85.4333 292° West 230 265 26,200  Level Jacksonville Center
Thu 02:03:26 PM 30.4153 -85.5011 289° West 230 265 26,200  Level Jacksonville Center
Thu 02:04:26 PM 30.4158 -85.5736 271° West 230 265 26,200  Level Jacksonville Center
Thu 02:05:26 PM 30.4142 -85.6481 269° West 230 265 26,200  Level Jacksonville Center
Thu 02:06:26 PM 30.4167 -85.7278 272° West 230 265 26,200  Level Jacksonville Center
Thu 02:07:26 PM 30.4192 -85.8000 272° West 230 265 26,200  Level Jacksonville Center
Thu 02:08:26 PM 30.4175 -85.8747 269° West 230 265 26,200  Level Jacksonville Center
Thu 02:09:26 PM 30.4178 -85.9444 270° West 230 265 26,200  Level Jacksonville Center
Thu 02:10:26 PM 30.4203 -86.0192 272° West 230 265 26,200  Level Jacksonville Center
Thu 02:11:26 PM 30.4183 -86.0914 268° West 230 265 26,200  Level Jacksonville Center
Thu 02:12:26 PM 30.4208 -86.1639 272° West 235 270 26,200  Level Jacksonville Center
Thu 02:13:26 PM 30.4211 -86.2336 270° West 235 270 26,200  Level Jacksonville Center
Thu 02:14:26 PM 30.4211 -86.3058 270° West 235 270 26,200  Level Jacksonville Center
Thu 02:15:26 PM 30.4236 -86.3733 272° West 230 265 26,200  Level Jacksonville Center
Thu 02:16:26 PM 30.4236 -86.4433 270° West 230 265 26,200  Level Jacksonville Center
Thu 02:17:26 PM 30.4239 -86.5156 270° West 230 265 26,200  Level Jacksonville Center
Thu 02:18:26 PM 30.4239 -86.5853 270° West 225 259 26,200  Level Jacksonville Center
Thu 02:19:26 PM 30.4239 -86.6553 270° West 225 259 26,200  Level Jacksonville Center
Thu 02:20:26 PM 30.4261 -86.7253 272° West 220 253 26,200  Level Jacksonville Center
Thu 02:21:26 PM 30.4239 -86.7972 268° West 220 253 26,200  Level Jacksonville Center
Thu 02:22:26 PM 30.4239 -86.8647 270° West 215 247 26,200  Level Jacksonville Center
Thu 02:23:26 PM 30.4236 -86.9394 270° West 220 253 26,200  Level Jacksonville Center
Thu 02:24:26 PM 30.4275 -87.0117 274° West 220 253 26,200  Level Jacksonville Center
Thu 02:25:26 PM 30.4272 -87.0817 270° West 220 253 26,200  Level Jacksonville Center
Thu 02:26:26 PM 30.4250 -87.1539 268° West 225 259 26,200  Level Jacksonville Center
Thu 02:28:03 PM 30.4264 -87.2614 271° West 220 253 26,200  Level Houston Center
Thu 02:29:05 PM 30.4258 -87.3333 270° West 222 255 26,200  Level Houston Center
Thu 02:30:07 PM 30.4261 -87.4039 270° West 219 252 26,200  Level Houston Center
Thu 02:31:09 PM 30.4247 -87.4753 269° West 221 254 26,200  Level Houston Center
Thu 02:32:11 PM 30.4256 -87.5597 271° West 220 253 26,200 -242 Level Houston Center
Thu 02:33:13 PM 30.4244 -87.6286 269° West 216 249 25,700 -677 Descending Houston Center
Thu 02:34:15 PM 30.4256 -87.7092 271° West 238 274 24,800 -726 Descending Houston Center
Thu 02:35:17 PM 30.4253 -87.7908 270° West 250 288 24,200 -336 Descending Houston Center
Thu 02:36:20 PM 30.4244 -87.8667 269° West 239 275 24,100 -48 Descending Houston Center
Thu 02:37:22 PM 30.4219 -87.9353 268° West 219 252 24,100 -387 Level Houston Center
Thu 02:38:24 PM 30.4208 -88.0144 269° West 208 239 23,300 -1,403 Descending Houston Center
Thu 02:39:26 PM 30.4217 -88.0967 271° West 242 278 21,200 -2,032 Descending Houston Center
Thu 02:40:28 PM 30.4197 -88.1867 269° West 275 316 19,100 -2,032 Descending Houston Center
Thu 02:41:30 PM 30.4183 -88.2731 269° West 273 314 17,000 -2,226 Descending Houston Center
Thu 02:42:32 PM 30.4194 -88.3603 271° West 273 314 14,500 -2,400 Descending Houston Center
Thu 02:43:35 PM 30.4189 -88.4453 270° West 267 307 12,000 -2,544 Descending Houston Center
Thu 02:44:37 PM 30.4214 -88.5425 272° West 257 296 9,200 -2,371 Descending Houston Center
Thu 02:45:39 PM 30.4325 -88.6197 279° West 246 283 7,100 -1,984 Descending Houston Center
Thu 02:46:41 PM 30.4433 -88.6919 280° West 232 267 5,100 -1,694 Descending Houston Center
Thu 02:47:43 PM 30.4569 -88.7617 283° West 225 259 3,600 -1,016 Descending Houston Center
Thu 02:48:45 PM 30.4722 -88.8236 286° West 207 238 3,000 -290 Descending Houston Center
Thu 02:49:47 PM 30.4808 -88.8819 280° West 192 221 3,000 -240 Level Houston Center
Thu 02:50:50 PM 30.4742 -88.9542 264° West 198 228 2,500 -480 Descending Houston Center
Thu 02:51:52 PM 30.4636 -89.0153 259° West 195 224 2,000 -581 Descending Houston Center
Thu 02:52:54 PM 30.4597 -89.0608 264° West 152 175 1,300 -435 Descending Houston Center
Thu 02:53:56 PM 30.4369 -89.0961 233° Southwest 148 170 1,100 -194 Descending Houston Center
Thu 02:55:00 PM 30.4073 -89.0701 145° Southeast  Level Estimated
Thu 03:02:00 PM 30.4073 -89.0701 270° West  Level Estimated
Thu 03:03:00 PM 30.4073 -89.0701 270° West  Level Estimated

Login

Don't have an account? Register now (free) for customized features, flight alerts, and more!